Time;durP1;ratioP1;P1;durP2;ratioP2;P2;SDS_P1;SDS_P2;PMS_P1;PMS_P2;Temp;Humidity;BMP_temperature;BMP_pressure;BME280_temperature;BME280_humidity;BME280_pressure;Samples;Min_cycle;Max_cycle;Signal;HPM_P1;HPM_P2
2022/09/03 00:02:37;0.00;0.00;0.62;0.00;0.00;0.62;2.60;1.67;;;26.60;22.20;;;;;;2243891;61;20382;-63
2022/09/03 00:05:28;0.00;0.00;0.62;0.00;0.00;0.62;4.13;1.83;;;26.60;22.30;;;;;;2241461;62;20662;-63
2022/09/03 00:08:22;0.00;0.00;0.62;0.00;0.00;0.62;2.30;1.73;;;26.60;22.80;;;;;;2241825;62;20376;-63
2022/09/03 00:11:14;0.00;0.00;0.62;0.00;0.00;0.62;2.03;1.73;;;26.50;22.30;;;;;;2241378;62;20370;-64
2022/09/03 00:14:04;0.00;0.00;0.62;0.00;0.00;0.62;2.30;1.70;;;26.50;22.40;;;;;;2241022;61;20414;-64
2022/09/03 00:16:56;0.00;0.00;0.62;0.00;0.00;0.62;3.07;1.53;;;26.50;22.40;;;;;;2241704;62;20507;-62
2022/09/03 00:19:52;0.00;0.00;0.62;0.00;0.00;0.62;2.27;1.77;;;26.50;22.50;;;;;;2241213;62;20696;-63
2022/09/03 00:22:43;0.00;0.00;0.62;0.00;0.00;0.62;1.83;1.53;;;26.50;22.50;;;;;;2241219;61;20406;-62
2022/09/03 00:25:38;0.00;0.00;0.62;0.00;0.00;0.62;2.10;1.60;;;26.50;22.50;;;;;;2241355;62;20520;-64
2022/09/03 00:28:29;0.00;0.00;0.62;0.00;0.00;0.62;3.10;1.73;;;26.50;22.50;;;;;;2241082;62;20760;-62
2022/09/03 00:31:20;0.00;0.00;0.62;0.00;0.00;0.62;2.20;1.60;;;26.50;22.50;;;;;;2241518;62;20378;-65
2022/09/03 00:34:15;0.00;0.00;0.62;0.00;0.00;0.62;3.07;1.93;;;26.50;22.50;;;;;;2244062;61;20401;-63
2022/09/03 00:37:01;0.00;0.00;0.62;0.00;0.00;0.62;2.37;1.40;;;26.50;22.50;;;;;;2245148;61;20413;-63
2022/09/03 00:39:46;0.00;0.00;0.62;0.00;0.00;0.62;1.90;1.53;;;26.50;22.50;;;;;;2245817;61;20444;-64
2022/09/03 00:42:45;0.00;0.00;0.62;0.00;0.00;0.62;1.60;1.30;;;26.50;22.50;;;;;;2244862;61;20365;-64
2022/09/03 00:45:39;0.00;0.00;0.62;0.00;0.00;0.62;1.90;1.33;;;26.50;22.60;;;;;;2241601;62;20463;-61
2022/09/03 00:48:30;0.00;0.00;0.62;0.00;0.00;0.62;1.63;1.27;;;26.50;22.60;;;;;;2241060;62;20605;-63
2022/09/03 00:51:28;0.00;0.00;0.62;0.00;0.00;0.62;1.80;1.50;;;26.50;22.60;;;;;;2241682;62;20399;-63
2022/09/03 00:54:19;0.00;0.00;0.62;0.00;0.00;0.62;2.47;1.53;;;26.50;22.60;;;;;;2238866;62;20399;-62
2022/09/03 00:57:24;0.00;0.00;0.62;0.00;0.00;0.62;2.20;1.73;;;26.50;22.60;;;;;;2237768;62;20783;-62
2022/09/03 01:00:13;0.00;0.00;0.62;0.00;0.00;0.62;3.70;1.90;;;26.50;22.60;;;;;;2238351;62;20359;-64
2022/09/03 01:03:07;0.00;0.00;0.62;0.00;0.00;0.62;2.50;1.90;;;26.50;22.60;;;;;;2237933;61;20484;-63
2022/09/03 01:06:20;0.00;0.00;0.62;0.00;0.00;0.62;2.50;1.60;;;26.50;22.60;;;;;;2237924;62;20399;-61
2022/09/03 01:09:30;0.00;0.00;0.62;0.00;0.00;0.62;2.03;1.53;;;26.50;22.60;;;;;;2238327;62;20744;-64
2022/09/03 01:12:31;0.00;0.00;0.62;0.00;0.00;0.62;3.50;2.07;;;26.50;22.60;;;;;;2237595;62;20510;-64
2022/09/03 01:15:25;0.00;0.00;0.62;0.00;0.00;0.62;2.00;1.80;;;26.50;22.60;;;;;;2242278;62;20418;-64
2022/09/03 01:18:22;0.00;0.00;0.62;0.00;0.00;0.62;2.23;1.60;;;26.50;22.60;;;;;;2241700;62;20406;-64
2022/09/03 01:21:45;0.00;0.00;0.62;0.00;0.00;0.62;2.40;1.87;;;26.40;22.60;;;;;;2241839;62;20366;-62
2022/09/03 01:24:59;0.00;0.00;0.62;0.00;0.00;0.62;2.50;2.10;;;26.40;22.60;;;;;;2241733;62;20430;-60
2022/09/03 01:28:00;0.00;0.00;0.62;0.00;0.00;0.62;2.43;1.70;;;26.40;22.70;;;;;;2241614;62;20684;-60
2022/09/03 01:30:53;0.00;0.00;0.62;0.00;0.00;0.62;2.63;2.00;;;26.40;22.70;;;;;;2243299;61;20361;-65
2022/09/03 01:33:47;0.00;0.00;0.62;0.00;0.00;0.62;3.20;1.93;;;26.40;22.70;;;;;;2243165;61;20410;-64
2022/09/03 01:36:43;0.00;0.00;0.62;0.00;0.00;0.62;2.30;1.50;;;26.40;22.60;;;;;;2241961;62;20403;-63
2022/09/03 01:39:40;0.00;0.00;0.62;0.00;0.00;0.62;3.00;1.70;;;26.40;22.70;;;;;;2241650;62;20381;-62
2022/09/03 01:42:39;0.00;0.00;0.62;0.00;0.00;0.62;2.77;2.20;;;26.30;22.60;;;;;;2241662;61;20722;-63
2022/09/03 01:45:45;0.00;0.00;0.62;0.00;0.00;0.62;2.30;1.90;;;26.30;22.70;;;;;;2246113;61;20377;-60
2022/09/03 01:48:42;0.00;0.00;0.62;0.00;0.00;0.62;2.30;1.60;;;26.30;22.60;;;;;;2245639;61;20443;-62
2022/09/03 01:51:29;0.00;0.00;0.62;0.00;0.00;0.62;2.20;1.87;;;26.30;22.70;;;;;;2245790;61;20401;-64
2022/09/03 01:54:45;0.00;0.00;0.62;0.00;0.00;0.62;2.10;1.60;;;26.30;22.70;;;;;;2242370;62;20394;-61
2022/09/03 01:57:48;0.00;0.00;0.62;0.00;0.00;0.62;1.93;1.30;;;26.30;22.70;;;;;;2241475;62;20722;-64
2022/09/03 02:00:41;0.00;0.00;0.62;0.00;0.00;0.62;2.20;1.33;;;26.20;22.70;;;;;;2242161;62;20357;-63
2022/09/03 02:03:34;0.00;0.00;0.62;0.00;0.00;0.62;1.80;1.20;;;26.20;22.70;;;;;;2241274;61;20449;-64
2022/09/03 02:06:19;0.00;0.00;0.62;0.00;0.00;0.62;2.50;1.40;;;26.20;22.70;;;;;;2241828;62;20358;-62
2022/09/03 02:09:04;0.00;0.00;0.62;0.00;0.00;0.62;2.30;1.47;;;26.20;22.70;;;;;;2241752;62;20564;-63
2022/09/03 02:11:56;0.00;0.00;0.62;0.00;0.00;0.62;2.37;1.60;;;26.20;22.80;;;;;;2241425;62;20399;-61
2022/09/03 02:14:42;0.00;0.00;0.62;0.00;0.00;0.62;2.07;1.40;;;26.20;22.70;;;;;;2238022;62;20844;-63
2022/09/03 02:17:28;0.00;0.00;0.62;0.00;0.00;0.62;2.43;1.53;;;26.20;22.70;;;;;;2237398;62;20363;-64
2022/09/03 02:20:19;0.00;0.00;0.62;0.00;0.00;0.62;2.40;1.20;;;26.20;22.70;;;;;;2237940;62;20371;-62
2022/09/03 02:23:04;0.00;0.00;0.62;0.00;0.00;0.62;2.27;1.30;;;26.10;22.70;;;;;;2239229;61;20367;-63
2022/09/03 02:25:54;0.00;0.00;0.62;0.00;0.00;0.62;1.70;1.20;;;26.10;22.80;;;;;;2241474;62;20462;-62
2022/09/03 02:28:39;0.00;0.00;0.62;0.00;0.00;0.62;1.90;1.20;;;26.10;22.70;;;;;;2241900;62;20367;-62
2022/09/03 02:31:24;0.00;0.00;0.62;0.00;0.00;0.62;1.70;1.20;;;26.10;22.70;;;;;;2241631;62;20446;-60
2022/09/03 02:34:10;0.00;0.00;0.62;0.00;0.00;0.62;1.70;1.20;;;26.10;22.70;;;;;;2244429;61;20393;-62
2022/09/03 02:36:55;0.00;0.00;0.62;0.00;0.00;0.62;2.10;1.33;;;26.10;22.80;;;;;;2245923;61;20370;-62
2022/09/03 02:39:40;0.00;0.00;0.62;0.00;0.00;0.62;1.83;1.00;;;26.00;22.70;;;;;;2245276;61;20654;-61
2022/09/03 02:42:26;0.00;0.00;0.62;0.00;0.00;0.62;3.70;1.10;;;26.00;22.80;;;;;;2245170;61;20401;-61
2022/09/03 02:45:23;0.00;0.00;0.62;0.00;0.00;0.62;2.20;1.20;;;26.00;22.80;;;;;;2242065;62;20431;-61
2022/09/03 02:48:10;0.00;0.00;0.62;0.00;0.00;0.62;2.00;1.40;;;26.00;22.80;;;;;;2241549;62;20382;-65
2022/09/03 02:50:56;0.00;0.00;0.62;0.00;0.00;0.62;1.60;1.10;;;26.00;22.80;;;;;;2241860;62;20359;-66
2022/09/03 02:53:41;0.00;0.00;0.62;0.00;0.00;0.62;2.37;1.27;;;26.00;22.80;;;;;;2241513;61;20739;-66
2022/09/03 02:56:27;0.00;0.00;0.62;0.00;0.00;0.62;2.63;1.40;;;25.90;22.70;;;;;;2241157;62;20402;-64
2022/09/03 02:59:11;0.00;0.00;0.62;0.00;0.00;0.62;1.67;1.07;;;25.90;22.70;;;;;;2241942;62;20395;-62
2022/09/03 03:01:56;0.00;0.00;0.62;0.00;0.00;0.62;2.10;1.30;;;25.90;22.70;;;;;;2241424;62;20722;-61
2022/09/03 03:04:40;0.00;0.00;0.62;0.00;0.00;0.62;2.27;1.23;;;25.90;22.70;;;;;;2245276;61;20486;-63
2022/09/03 03:07:28;0.00;0.00;0.62;0.00;0.00;0.62;1.83;1.27;;;25.80;22.70;;;;;;2245915;61;20429;-61
2022/09/03 03:10:13;0.00;0.00;0.62;0.00;0.00;0.62;1.60;1.10;;;25.80;22.70;;;;;;2245108;61;20362;-62
2022/09/03 03:12:58;0.00;0.00;0.62;0.00;0.00;0.62;1.60;1.00;;;25.80;22.70;;;;;;2245309;61;20405;-63
2022/09/03 03:15:43;0.00;0.00;0.62;0.00;0.00;0.62;2.37;1.27;;;25.80;23.20;;;;;;2245108;61;20449;-63
2022/09/03 03:18:28;0.00;0.00;0.62;0.00;0.00;0.62;2.07;1.07;;;25.80;22.70;;;;;;2245057;61;20433;-64
2022/09/03 03:21:16;0.00;0.00;0.62;0.00;0.00;0.62;1.93;1.10;;;25.70;22.60;;;;;;2245916;61;20358;-63
2022/09/03 03:24:04;0.00;0.00;0.62;0.00;0.00;0.62;2.87;1.40;;;25.80;22.70;;;;;;2244964;61;20389;-61
2022/09/03 03:26:49;0.00;0.00;0.62;0.00;0.00;0.62;2.47;1.50;;;25.70;22.60;;;;;;2245461;61;20574;-62
2022/09/03 03:29:35;0.00;0.00;0.62;0.00;0.00;0.62;1.80;1.00;;;25.70;22.60;;;;;;2242824;61;20370;-63
2022/09/03 03:32:19;0.00;0.00;0.62;0.00;0.00;0.62;1.63;1.30;;;25.70;22.60;;;;;;2241087;61;20402;-62
2022/09/03 03:35:06;0.00;0.00;0.62;0.00;0.00;0.62;1.60;1.20;;;25.70;22.60;;;;;;2241523;62;20427;-62
2022/09/03 03:37:51;0.00;0.00;0.62;0.00;0.00;0.62;2.83;1.20;;;25.70;22.60;;;;;;2241548;62;20621;-63
2022/09/03 03:40:38;0.00;0.00;0.62;0.00;0.00;0.62;1.40;0.90;;;25.70;22.60;;;;;;2241069;62;20354;-61
2022/09/03 03:43:23;0.00;0.00;0.62;0.00;0.00;0.62;1.60;1.00;;;25.60;22.60;;;;;;2243675;61;20597;-63
2022/09/03 03:46:09;0.00;0.00;0.62;0.00;0.00;0.62;1.70;1.20;;;25.60;22.60;;;;;;2245297;61;20583;-61
2022/09/03 03:48:54;0.00;0.00;0.62;0.00;0.00;0.62;1.70;1.10;;;25.60;22.60;;;;;;2245453;61;20398;-64
2022/09/03 03:51:39;0.00;0.00;0.62;0.00;0.00;0.62;3.03;1.23;;;25.60;22.60;;;;;;2245749;61;20578;-61
2022/09/03 03:54:24;0.00;0.00;0.62;0.00;0.00;0.62;1.97;1.10;;;25.60;22.60;;;;;;2241374;62;20397;-61
2022/09/03 03:57:11;0.00;0.00;0.62;0.00;0.00;0.62;1.97;1.27;;;25.60;22.60;;;;;;2241448;62;20361;-63
2022/09/03 03:59:56;0.00;0.00;0.62;0.00;0.00;0.62;1.63;1.10;;;25.60;22.60;;;;;;2241468;62;20374;-63
2022/09/03 04:02:41;0.00;0.00;0.62;0.00;0.00;0.62;1.87;1.33;;;25.60;22.60;;;;;;2241872;61;20365;-63
2022/09/03 04:05:26;0.00;0.00;0.62;0.00;0.00;0.62;2.63;1.50;;;25.50;22.60;;;;;;2245708;61;20388;-62
2022/09/03 04:08:12;0.00;0.00;0.62;0.00;0.00;0.62;1.80;1.10;;;25.50;22.70;;;;;;2245387;61;20398;-60
2022/09/03 04:11:00;0.00;0.00;0.62;0.00;0.00;0.62;1.90;1.23;;;25.50;22.70;;;;;;2245198;61;20584;-62
2022/09/03 04:13:48;0.00;0.00;0.62;0.00;0.00;0.62;1.97;1.50;;;25.50;22.70;;;;;;2240417;61;20367;-62
2022/09/03 04:16:33;0.00;0.00;0.62;0.00;0.00;0.62;2.20;1.30;;;25.50;22.70;;;;;;2237257;62;20372;-59
2022/09/03 04:19:18;0.00;0.00;0.62;0.00;0.00;0.62;1.70;1.30;;;25.50;22.80;;;;;;2237460;62;20423;-63
2022/09/03 04:22:03;0.00;0.00;0.62;0.00;0.00;0.62;1.77;1.07;;;25.50;22.80;;;;;;2237303;62;20431;-64
2022/09/03 04:24:47;0.00;0.00;0.62;0.00;0.00;0.62;2.13;1.33;;;25.50;22.80;;;;;;2472726;54;20754;-62
2022/09/03 04:27:32;0.00;0.00;0.62;0.00;0.00;0.62;2.37;1.30;;;25.40;22.80;;;;;;2242500;62;20430;-65
2022/09/03 04:30:19;0.00;0.00;0.62;0.00;0.00;0.62;2.07;1.43;;;25.50;22.80;;;;;;2244417;61;20365;-61
2022/09/03 04:33:04;0.00;0.00;0.62;0.00;0.00;0.62;2.03;1.37;;;25.40;22.80;;;;;;2243125;61;20466;-63
2022/09/03 04:35:49;0.00;0.00;0.62;0.00;0.00;0.62;4.40;1.00;;;25.40;22.80;;;;;;2238342;62;20379;-62
2022/09/03 04:38:34;0.00;0.00;0.62;0.00;0.00;0.62;1.77;1.37;;;25.40;22.80;;;;;;2237770;62;20387;-62
2022/09/03 04:41:23;0.00;0.00;0.62;0.00;0.00;0.62;1.70;1.20;;;25.40;22.80;;;;;;2238090;62;20370;-65
2022/09/03 04:44:08;0.00;0.00;0.62;0.00;0.00;0.62;2.00;1.30;;;25.40;22.80;;;;;;2241092;61;20408;-62
2022/09/03 04:46:54;0.00;0.00;0.62;0.00;0.00;0.62;2.27;1.10;;;25.40;22.90;;;;;;2241647;62;20575;-60
2022/09/03 04:49:39;0.00;0.00;0.62;0.00;0.00;0.62;2.03;1.30;;;25.40;22.90;;;;;;2242282;62;20408;-61
2022/09/03 04:52:24;0.00;0.00;0.62;0.00;0.00;0.62;1.77;1.33;;;25.40;22.90;;;;;;2241637;61;20426;-61
2022/09/03 04:55:10;0.00;0.00;0.62;0.00;0.00;0.62;4.50;1.20;;;25.40;22.90;;;;;;2237815;62;20391;-60
2022/09/03 04:57:54;0.00;0.00;0.62;0.00;0.00;0.62;1.60;1.00;;;25.30;22.90;;;;;;2238366;62;20752;-65
2022/09/03 05:00:39;0.00;0.00;0.62;0.00;0.00;0.62;1.80;1.30;;;25.30;22.90;;;;;;2237789;62;20367;-61
2022/09/03 05:03:26;0.00;0.00;0.62;0.00;0.00;0.62;1.70;1.07;;;25.30;22.90;;;;;;2239705;61;20386;-61
2022/09/03 05:06:11;0.00;0.00;0.62;0.00;0.00;0.62;2.63;1.10;;;25.30;22.90;;;;;;2242276;62;20593;-61
2022/09/03 05:08:57;0.00;0.00;0.62;0.00;0.00;0.62;1.80;1.20;;;25.30;23.00;;;;;;2241993;62;20388;-62
2022/09/03 05:11:43;0.00;0.00;0.62;0.00;0.00;0.62;2.63;1.40;;;25.30;23.00;;;;;;2242389;62;20395;-61
2022/09/03 05:14:27;0.00;0.00;0.62;0.00;0.00;0.62;2.47;1.20;;;25.30;23.00;;;;;;2238227;62;20391;-65
2022/09/03 05:17:12;0.00;0.00;0.62;0.00;0.00;0.62;2.17;1.10;;;25.30;23.00;;;;;;2237603;62;20426;-63
2022/09/03 05:19:58;0.00;0.00;0.62;0.00;0.00;0.62;1.70;1.20;;;25.20;23.00;;;;;;2238335;62;20375;-62
2022/09/03 05:22:43;0.00;0.00;0.62;0.00;0.00;0.62;1.57;1.10;;;25.20;23.00;;;;;;2237566;61;20484;-62
2022/09/03 05:25:27;0.00;0.00;0.62;0.00;0.00;0.62;1.90;1.17;;;25.20;23.00;;;;;;2237823;62;20746;-61
2022/09/03 05:28:13;0.00;0.00;0.62;0.00;0.00;0.62;1.90;1.10;;;25.20;23.00;;;;;;2238355;62;20402;-62
2022/09/03 05:30:59;0.00;0.00;0.62;0.00;0.00;0.62;2.20;1.60;;;25.20;23.00;;;;;;2237754;62;20439;-62
2022/09/03 05:33:47;0.00;0.00;0.62;0.00;0.00;0.62;1.50;1.00;;;25.20;23.00;;;;;;2243152;61;20380;-63
2022/09/03 05:36:36;0.00;0.00;0.62;0.00;0.00;0.62;2.17;1.27;;;25.20;23.00;;;;;;2245772;61;20405;-64
2022/09/03 05:39:21;0.00;0.00;0.62;0.00;0.00;0.62;2.00;1.40;;;25.20;23.10;;;;;;2245425;61;20440;-62
2022/09/03 05:42:06;0.00;0.00;0.62;0.00;0.00;0.62;2.00;1.80;;;25.10;23.00;;;;;;2246223;61;20358;-63
2022/09/03 05:44:51;0.00;0.00;0.62;0.00;0.00;0.62;1.90;1.17;;;25.10;23.10;;;;;;2468380;54;20482;-62
2022/09/03 05:47:38;0.00;0.00;0.62;0.00;0.00;0.62;6.00;1.30;;;25.10;23.10;;;;;;2237834;62;20447;-62
2022/09/03 05:50:23;0.00;0.00;0.62;0.00;0.00;0.62;2.13;1.30;;;25.10;23.10;;;;;;2238189;62;20367;-64
2022/09/03 05:53:09;0.00;0.00;0.62;0.00;0.00;0.62;2.37;1.77;;;25.10;23.20;;;;;;2239076;61;20370;-60
2022/09/03 05:55:58;0.00;0.00;0.62;0.00;0.00;0.62;2.53;1.40;;;25.10;23.20;;;;;;2242077;62;20426;-64
2022/09/03 05:58:46;0.00;0.00;0.62;0.00;0.00;0.62;2.63;1.37;;;25.00;23.20;;;;;;2241747;62;20411;-62
2022/09/03 06:01:33;0.00;0.00;0.62;0.00;0.00;0.62;3.13;1.73;;;25.10;23.30;;;;;;2241482;62;20410;-64
2022/09/03 06:04:18;0.00;0.00;0.62;0.00;0.00;0.62;2.00;1.27;;;25.00;23.30;;;;;;2245449;61;20385;-65
2022/09/03 06:07:03;0.00;0.00;0.62;0.00;0.00;0.62;2.80;1.90;;;25.10;23.40;;;;;;2245442;61;20770;-62
2022/09/03 06:09:49;0.00;0.00;0.62;0.00;0.00;0.62;1.60;1.27;;;25.00;23.40;;;;;;2245658;61;20733;-61
2022/09/03 06:12:36;0.00;0.00;0.62;0.00;0.00;0.62;2.93;1.33;;;25.00;23.50;;;;;;2244860;61;20369;-65
2022/09/03 06:15:20;0.00;0.00;0.62;0.00;0.00;0.62;2.33;1.43;;;25.00;23.50;;;;;;2237655;62;20427;-62
2022/09/03 06:18:05;0.00;0.00;0.62;0.00;0.00;0.62;1.83;1.43;;;25.00;24.10;;;;;;2238121;62;20387;-64
2022/09/03 06:20:54;0.00;0.00;0.62;0.00;0.00;0.62;2.07;1.60;;;25.00;23.60;;;;;;2237658;62;20784;-62
2022/09/03 06:23:38;0.00;0.00;0.62;0.00;0.00;0.62;2.27;1.50;;;25.00;23.60;;;;;;2241995;61;20604;-62
2022/09/03 06:26:27;0.00;0.00;0.62;0.00;0.00;0.62;2.60;1.53;;;25.00;23.60;;;;;;2241992;62;20363;-60
2022/09/03 06:29:12;0.00;0.00;0.62;0.00;0.00;0.62;2.90;1.50;;;25.00;23.60;;;;;;2243621;61;20370;-63
2022/09/03 06:31:58;0.00;0.00;0.62;0.00;0.00;0.62;3.27;1.57;;;25.00;23.70;;;;;;2241644;62;20358;-65
2022/09/03 06:34:43;0.00;0.00;0.62;0.00;0.00;0.62;3.40;1.67;;;25.00;23.70;;;;;;2468848;54;20428;-61
2022/09/03 06:37:27;0.00;0.00;0.62;0.00;0.00;0.62;3.43;1.60;;;25.00;23.80;;;;;;2237682;62;20360;-63
2022/09/03 06:40:13;0.00;0.00;0.62;0.00;0.00;0.62;3.83;1.20;;;25.00;23.80;;;;;;2237771;62;20367;-63
2022/09/03 06:43:00;0.00;0.00;0.62;0.00;0.00;0.62;2.67;1.67;;;25.10;23.90;;;;;;2237463;61;20387;-63
2022/09/03 06:45:53;0.00;0.00;0.62;0.00;0.00;0.62;3.60;1.80;;;25.10;24.00;;;;;;2237360;62;20424;-60
2022/09/03 06:48:40;0.00;0.00;0.62;0.00;0.00;0.62;2.77;1.73;;;25.10;24.00;;;;;;2237810;62;20359;-61
2022/09/03 06:51:27;0.00;0.00;0.62;0.00;0.00;0.62;4.27;1.50;;;25.10;24.00;;;;;;2237350;62;20768;-59
2022/09/03 06:54:14;0.00;0.00;0.62;0.00;0.00;0.62;3.20;1.70;;;25.10;24.00;;;;;;2240866;62;20391;-61
2022/09/03 06:56:59;0.00;0.00;0.62;0.00;0.00;0.62;2.67;1.40;;;25.10;24.00;;;;;;2241945;62;20452;-61
2022/09/03 06:59:45;0.00;0.00;0.62;0.00;0.00;0.62;2.43;1.60;;;25.10;24.00;;;;;;2241590;62;20586;-62
2022/09/03 07:02:29;0.00;0.00;0.62;0.00;0.00;0.62;2.00;1.30;;;25.10;24.00;;;;;;2241757;61;20590;-61
2022/09/03 07:05:14;0.00;0.00;0.62;0.00;0.00;0.62;2.63;1.80;;;25.10;24.00;;;;;;2241656;62;20382;-61
2022/09/03 07:07:59;0.00;0.00;0.62;0.00;0.00;0.62;2.87;1.60;;;25.10;24.00;;;;;;2241346;62;20407;-61
2022/09/03 07:10:50;0.00;0.00;0.62;0.00;0.00;0.62;2.23;1.50;;;25.10;23.90;;;;;;2241854;62;20399;-62
2022/09/03 07:13:34;0.00;0.00;0.62;0.00;0.00;0.62;2.17;1.40;;;25.10;23.90;;;;;;2241215;61;20369;-62
2022/09/03 07:16:22;0.00;0.00;0.62;0.00;0.00;0.62;2.23;1.70;;;25.10;23.90;;;;;;2241424;62;20583;-64
2022/09/03 07:19:08;0.00;0.00;0.62;0.00;0.00;0.62;3.13;1.77;;;25.10;23.90;;;;;;2241846;62;20411;-60
2022/09/03 07:21:52;0.00;0.00;0.62;0.00;0.00;0.62;3.93;1.67;;;25.10;23.90;;;;;;2241356;62;20355;-60
2022/09/03 07:24:37;0.00;0.00;0.62;0.00;0.00;0.62;2.40;1.73;;;25.10;23.90;;;;;;2237747;62;20814;-61
2022/09/03 07:27:22;0.00;0.00;0.62;0.00;0.00;0.62;4.97;1.80;;;25.10;24.00;;;;;;2237538;62;20387;-60
2022/09/03 07:30:09;0.00;0.00;0.62;0.00;0.00;0.62;4.90;1.90;;;25.10;24.00;;;;;;2237230;62;20436;-60
2022/09/03 07:33:00;0.00;0.00;0.62;0.00;0.00;0.62;3.17;1.33;;;25.10;23.90;;;;;;2238817;61;20375;-62
2022/09/03 07:35:46;0.00;0.00;0.62;0.00;0.00;0.62;2.37;1.70;;;25.10;24.00;;;;;;2241106;62;20390;-59
2022/09/03 07:38:33;0.00;0.00;0.62;0.00;0.00;0.62;2.50;1.57;;;25.10;24.00;;;;;;2241555;62;20411;-63
2022/09/03 07:41:18;0.00;0.00;0.62;0.00;0.00;0.62;3.20;1.60;;;25.10;24.00;;;;;;2241851;62;20637;-62
2022/09/03 07:44:06;0.00;0.00;0.62;0.00;0.00;0.62;5.00;1.90;;;25.10;24.00;;;;;;2237947;62;20431;-62
2022/09/03 07:46:51;0.00;0.00;0.62;0.00;0.00;0.62;3.77;1.87;;;25.10;24.10;;;;;;2237814;62;20423;-62
2022/09/03 07:49:38;0.00;0.00;0.62;0.00;0.00;0.62;4.33;1.77;;;25.10;24.10;;;;;;2237575;62;20704;-62
2022/09/03 07:52:22;0.00;0.00;0.62;0.00;0.00;0.62;3.83;1.60;;;25.10;24.20;;;;;;2236869;61;20448;-61
2022/09/03 07:55:09;0.00;0.00;0.62;0.00;0.00;0.62;3.80;1.90;;;25.10;24.20;;;;;;2237915;62;20775;-62
2022/09/03 07:57:55;0.00;0.00;0.62;0.00;0.00;0.62;2.60;1.27;;;25.10;24.20;;;;;;2237108;62;20367;-62
2022/09/03 08:00:40;0.00;0.00;0.62;0.00;0.00;0.62;2.87;1.77;;;25.10;24.30;;;;;;2237141;62;20378;-62
2022/09/03 08:03:26;0.00;0.00;0.62;0.00;0.00;0.62;2.57;1.57;;;25.10;24.30;;;;;;2239619;61;20370;-62
2022/09/03 08:06:14;0.00;0.00;0.62;0.00;0.00;0.62;3.23;1.50;;;25.10;24.40;;;;;;2241244;62;20358;-62
2022/09/03 08:09:01;0.00;0.00;0.62;0.00;0.00;0.62;2.03;1.40;;;25.00;24.40;;;;;;2241403;62;20359;-62
2022/09/03 08:11:45;0.00;0.00;0.62;0.00;0.00;0.62;3.60;1.90;;;25.00;24.40;;;;;;2241372;62;20722;-62
2022/09/03 08:14:30;0.00;0.00;0.62;0.00;0.00;0.62;2.67;1.90;;;25.00;24.40;;;;;;2237461;62;20463;-61
2022/09/03 08:17:15;0.00;0.00;0.62;0.00;0.00;0.62;1.90;1.40;;;25.00;24.40;;;;;;2237884;62;20390;-60
2022/09/03 08:19:59;0.00;0.00;0.62;0.00;0.00;0.62;2.07;1.20;;;25.00;24.40;;;;;;2237284;62;20391;-62
2022/09/03 08:22:46;0.00;0.00;0.62;0.00;0.00;0.62;1.80;1.40;;;25.00;24.40;;;;;;2238078;61;20394;-61
2022/09/03 08:25:30;0.00;0.00;0.62;0.00;0.00;0.62;2.10;1.57;;;25.00;24.40;;;;;;2241619;62;20390;-60
2022/09/03 08:28:15;0.00;0.00;0.62;0.00;0.00;0.62;2.63;1.60;;;25.00;24.50;;;;;;2241095;62;20596;-60
2022/09/03 08:31:05;0.00;0.00;0.62;0.00;0.00;0.62;2.30;1.50;;;25.00;24.60;;;;;;2241306;62;20431;-60
2022/09/03 08:33:52;0.00;0.00;0.62;0.00;0.00;0.62;5.07;1.57;;;25.00;24.60;;;;;;2241071;61;20377;-62
2022/09/03 08:36:40;0.00;0.00;0.62;0.00;0.00;0.62;2.70;1.83;;;25.00;24.60;;;;;;2241046;62;20467;-60
2022/09/03 08:39:27;0.00;0.00;0.62;0.00;0.00;0.62;2.10;1.40;;;25.00;24.60;;;;;;2241550;62;20422;-60
2022/09/03 08:42:31;0.00;0.00;0.62;0.00;0.00;0.62;3.80;1.60;;;25.00;24.60;;;;;;2241032;62;20370;-60
2022/09/03 08:45:20;0.00;0.00;0.62;0.00;0.00;0.62;3.03;2.00;;;25.00;24.60;;;;;;2241335;62;20399;-62
2022/09/03 08:48:12;0.00;0.00;0.62;0.00;0.00;0.62;1.90;1.50;;;25.00;24.60;;;;;;2241638;62;20764;-60
2022/09/03 08:51:03;0.00;0.00;0.62;0.00;0.00;0.62;3.03;1.57;;;25.00;24.70;;;;;;2241240;62;20402;-60
2022/09/03 08:53:54;0.00;0.00;0.62;0.00;0.00;0.62;3.87;1.60;;;25.00;24.70;;;;;;2238862;61;20701;-61
2022/09/03 08:56:42;0.00;0.00;0.62;0.00;0.00;0.62;1.80;1.20;;;25.00;24.70;;;;;;2237409;62;20387;-62
2022/09/03 08:59:28;0.00;0.00;0.62;0.00;0.00;0.62;3.67;1.47;;;25.00;24.70;;;;;;2237313;62;20496;-62
2022/09/03 09:02:24;0.00;0.00;0.62;0.00;0.00;0.62;2.77;1.50;;;25.00;24.70;;;;;;2237794;62;20391;-61
2022/09/03 09:05:15;0.00;0.00;0.62;0.00;0.00;0.62;2.00;1.53;;;25.00;24.70;;;;;;2237247;62;20430;-62
2022/09/03 09:08:08;0.00;0.00;0.62;0.00;0.00;0.62;3.50;1.70;;;25.00;24.70;;;;;;2237408;62;20765;-61
2022/09/03 09:11:05;0.00;0.00;0.62;0.00;0.00;0.62;4.33;1.60;;;25.00;24.60;;;;;;2237398;62;20765;-62
2022/09/03 09:13:58;0.00;0.00;0.62;0.00;0.00;0.62;3.50;1.60;;;25.00;24.60;;;;;;2240239;61;20370;-61
2022/09/03 09:16:55;0.00;0.00;0.62;0.00;0.00;0.62;3.90;1.83;;;25.00;24.70;;;;;;2242197;62;20434;-62
2022/09/03 09:19:52;0.00;0.00;0.62;0.00;0.00;0.62;2.13;1.57;;;25.00;25.20;;;;;;2241551;62;20418;-61
2022/09/03 09:22:40;0.00;0.00;0.62;0.00;0.00;0.62;3.40;1.80;;;25.00;24.60;;;;;;2241721;61;20399;-61
2022/09/03 09:25:25;0.00;0.00;0.62;0.00;0.00;0.62;2.20;1.40;;;25.00;24.60;;;;;;2244211;61;20374;-62
2022/09/03 09:28:17;0.00;0.00;0.62;0.00;0.00;0.62;3.13;1.60;;;25.00;24.60;;;;;;2241411;62;20382;-62
2022/09/03 09:31:08;0.00;0.00;0.62;0.00;0.00;0.62;2.20;1.50;;;25.00;24.60;;;;;;2242101;62;20436;-60
2022/09/03 09:33:53;0.00;0.00;0.62;0.00;0.00;0.62;3.17;1.63;;;25.00;24.60;;;;;;2238932;61;20375;-60
2022/09/03 09:36:46;0.00;0.00;0.62;0.00;0.00;0.62;3.90;1.80;;;25.10;24.60;;;;;;2237680;62;20444;-60
2022/09/03 09:39:31;0.00;0.00;0.62;0.00;0.00;0.62;2.93;1.50;;;25.10;24.50;;;;;;2238238;62;20416;-60
2022/09/03 09:42:20;0.00;0.00;0.62;0.00;0.00;0.62;2.63;1.87;;;25.10;24.50;;;;;;2239968;62;20364;-61
2022/09/03 09:45:10;0.00;0.00;0.62;0.00;0.00;0.62;2.10;1.47;;;25.10;24.50;;;;;;2241946;62;20430;-63
2022/09/03 09:47:56;0.00;0.00;0.62;0.00;0.00;0.62;2.90;1.53;;;25.10;24.40;;;;;;2242036;62;20386;-61
2022/09/03 09:50:44;0.00;0.00;0.62;0.00;0.00;0.62;5.40;1.70;;;25.10;24.30;;;;;;2241262;62;20414;-61
2022/09/03 09:53:30;0.00;0.00;0.62;0.00;0.00;0.62;2.33;1.80;;;25.10;24.30;;;;;;2242192;61;20376;-61
2022/09/03 09:56:24;0.00;0.00;0.62;0.00;0.00;0.62;2.00;1.37;;;25.10;24.20;;;;;;2237539;62;20383;-61
2022/09/03 09:59:10;0.00;0.00;0.62;0.00;0.00;0.62;5.40;1.40;;;25.20;24.20;;;;;;2237765;62;20388;-62
2022/09/03 10:02:10;0.00;0.00;0.62;0.00;0.00;0.62;2.73;1.57;;;25.20;24.20;;;;;;2238208;62;20751;-61
2022/09/03 10:05:10;0.00;0.00;0.62;0.00;0.00;0.62;2.67;1.60;;;25.20;24.10;;;;;;2473629;54;20426;-62
2022/09/03 10:07:58;0.00;0.00;0.62;0.00;0.00;0.62;2.30;1.53;;;25.20;24.00;;;;;;2242071;62;20351;-62
2022/09/03 10:10:48;0.00;0.00;0.62;0.00;0.00;0.62;2.07;1.70;;;25.20;23.90;;;;;;2241665;62;20752;-62
2022/09/03 10:13:41;0.00;0.00;0.62;0.00;0.00;0.62;2.90;1.50;;;25.20;23.90;;;;;;2239262;61;20375;-61
2022/09/03 10:16:33;0.00;0.00;0.62;0.00;0.00;0.62;2.67;1.80;;;25.30;23.90;;;;;;2238143;62;20490;-62
2022/09/03 10:19:29;0.00;0.00;0.62;0.00;0.00;0.62;3.20;1.33;;;25.20;23.80;;;;;;2237476;62;20403;-62
2022/09/03 10:22:19;0.00;0.00;0.62;0.00;0.00;0.62;3.17;1.80;;;25.30;23.70;;;;;;2237608;62;20368;-61
2022/09/03 10:25:05;0.00;0.00;0.62;0.00;0.00;0.62;2.90;1.57;;;25.30;23.60;;;;;;2241751;62;20386;-61
2022/09/03 10:27:52;0.00;0.00;0.62;0.00;0.00;0.62;4.57;1.60;;;25.30;23.50;;;;;;2241245;62;20398;-61
2022/09/03 10:30:59;0.00;0.00;0.62;0.00;0.00;0.62;4.43;1.80;;;25.30;23.40;;;;;;2241813;61;20371;-61
2022/09/03 10:33:49;0.00;0.00;0.62;0.00;0.00;0.62;5.57;1.60;;;25.40;23.40;;;;;;2241147;61;20758;-61
2022/09/03 10:36:41;0.00;0.00;0.62;0.00;0.00;0.62;3.07;1.60;;;25.40;23.50;;;;;;2241917;62;20480;-61
2022/09/03 10:39:45;0.00;0.00;0.62;0.00;0.00;0.62;4.13;1.40;;;25.40;23.40;;;;;;2241710;62;20390;-60
2022/09/03 10:42:44;0.00;0.00;0.62;0.00;0.00;0.62;3.70;1.53;;;25.40;23.40;;;;;;2240777;61;20491;-61
2022/09/03 10:45:40;0.00;0.00;0.62;0.00;0.00;0.62;2.27;1.37;;;25.40;23.40;;;;;;2238062;62;20379;-61
2022/09/03 10:48:41;0.00;0.00;0.62;0.00;0.00;0.62;1.97;1.43;;;25.50;24.00;;;;;;2237353;62;20408;-62
2022/09/03 10:51:32;0.00;0.00;0.62;0.00;0.00;0.62;2.33;1.47;;;25.50;23.50;;;;;;2237504;62;20363;-62
2022/09/03 10:54:35;0.00;0.00;0.62;0.00;0.00;0.62;2.43;1.50;;;25.50;23.40;;;;;;2241011;62;20390;-62
2022/09/03 10:57:34;0.00;0.00;0.62;0.00;0.00;0.62;4.40;1.57;;;25.50;23.40;;;;;;2240814;62;20374;-62
2022/09/03 11:00:21;0.00;0.00;0.62;0.00;0.00;0.62;5.60;1.80;;;25.60;23.40;;;;;;2241948;62;20387;-62
2022/09/03 11:03:44;0.00;0.00;0.62;0.00;0.00;0.62;2.03;1.40;;;25.60;23.30;;;;;;2239880;61;20448;-62
2022/09/03 11:06:39;0.00;0.00;0.62;0.00;0.00;0.62;2.13;1.60;;;25.60;23.30;;;;;;2237748;62;20432;-62
2022/09/03 11:09:30;0.00;0.00;0.62;0.00;0.00;0.62;2.33;1.60;;;25.70;23.30;;;;;;2237561;62;20355;-62